M I D A S
Marine Information and Data Acquisition System
Tripno 1875 of the Zeeleeuw from 2010-05-05 06:13:49 to 2010-05-05 14:26:35
Back to CruiseResearch ActivitiesStationsMapUnderway DataData graphs

EquipmentUnitsComment
TimeDGPSUTC
LatitudeDGPSDM.mWGS84
LongitudeDGPSDM.mWGS84
HeadingGyrodeg 
SOGDGPSknotsSpeed over ground
COGDGPSdegCourse over ground
DepthEcho soundermeters200 kHz
Missing or incorrect values are displayed as -999
Navigation data collected by the RV Zeeleeuw from 2010-05-05 06:17:15 to 2010-05-05 15:24:49
Time Latitude Longitude Heading SOG COG Depth
2010-05-05 06:18:24 51°13.678 2°55.872 110.2 4.1 287 -999
2010-05-05 06:19:24 51°13.718 2°55.761 129.4 5.1 307 -999
2010-05-05 06:20:24 51°13.784 2°55.669 152.5 5.6 331 -999
2010-05-05 06:21:24 51°13.865 2°55.619 173.1 4.6 349 -999
2010-05-05 06:22:24 51°13.923 2°55.631 207.9 2.7 24 4.8
2010-05-05 06:23:24 51°13.935 2°55.641 235.6 0.4 239 -999
2010-05-05 06:24:23 51°13.93 2°55.638 263.1 0.8 108 -999
2010-05-05 06:25:24 51°13.931 2°55.608 296.5 1.4 288 -999
2010-05-05 06:26:24 51°13.933 2°55.591 323.8 1.2 154 -999
2010-05-05 06:27:24 51°13.929 2°55.592 328.4 1 323 4.8
2010-05-05 06:28:23 51°13.961 2°55.57 344.6 2.1 344 12.5
2010-05-05 06:29:22 51°13.978 2°55.566 351 0.5 154 12.4
2010-05-05 06:30:24 51°13.972 2°55.569 341.3 0.2 167 -999
2010-05-05 06:31:24 51°13.956 2°55.581 332.5 1.9 154 -999
2010-05-05 06:32:24 51°13.931 2°55.604 323.7 1.9 146 12.7
2010-05-05 06:33:24 51°13.915 2°55.614 318.9 0.4 198 -999
2010-05-05 06:34:24 51°13.903 2°55.621 307.2 1.1 142 -999
2010-05-05 06:35:24 51°13.897 2°55.629 300.9 0.8 284 -999
2010-05-05 06:36:24 51°13.922 2°55.594 331.1 3.2 329 12.5
2010-05-05 06:37:24 51°13.979 2°55.544 334 4.1 333 -999
2010-05-05 06:38:23 51°14.037 2°55.498 337.2 3.9 334 12.3
2010-05-05 06:39:21 51°14.093 2°55.452 340.5 3.9 336 12.2
2010-05-05 06:40:20 51°14.154 2°55.406 336.1 4.4 333 12.1
2010-05-05 06:41:21 51°14.227 2°55.332 326.3 5.7 323 12
2010-05-05 06:42:21 51°14.33 2°55.218 328.9 9.4 326 12.2
2010-05-05 06:43:20 51°14.478 2°55.062 327.9 11.9 322 12.1
2010-05-05 06:44:21 51°14.664 2°54.871 329.8 13.8 330 -999
2010-05-05 06:45:20 51°14.852 2°54.677 325.7 13.6 326 12.3
2010-05-05 06:46:21 51°15.042 2°54.473 325.5 13.6 327 11.5
2010-05-05 06:47:20 51°15.221 2°54.264 321 13.6 321 11.4
2010-05-05 06:48:20 51°15.402 2°54.049 324.2 13.6 324 12
2010-05-05 06:49:20 51°15.585 2°53.835 322.3 13.6 321 12.8
2010-05-05 06:50:21 51°15.762 2°53.603 320.2 13.6 321 12.6
2010-05-05 06:51:20 51°15.946 2°53.405 328.7 13.5 330 13.2
2010-05-05 06:52:21 51°16.146 2°53.23 331.1 13.4 332 13.1
2010-05-05 06:55:17 51°16.767 2°52.851 347 13.8 347 11.7
2010-05-05 06:57:34 51°17.283 2°52.658 345.9 14 347 11.6
2010-05-05 06:58:34 51°17.507 2°52.569 345.6 13.8 346 11.9
2010-05-05 06:59:34 51°17.735 2°52.535 3.1 13.9 5 11.4
2010-05-05 07:00:34 51°17.967 2°52.584 8.3 14.1 11 11.7
2010-05-05 07:01:34 51°18.187 2°52.713 26.1 14.3 28 12.5
2010-05-05 07:02:34 51°18.4 2°52.869 19 13.9 17 12.5
2010-05-05 07:03:34 51°18.628 2°52.94 7.7 14.1 8 12.7
2010-05-05 07:04:34 51°18.86 2°52.974 4.7 14.1 5 13
2010-05-05 07:05:34 51°19.093 2°53.007 4.8 14.1 6 13.6
2010-05-05 07:06:34 51°19.326 2°53.041 5.2 14 6 14.6
2010-05-05 07:07:34 51°19.559 2°53.078 5 13.9 5 15.7
2010-05-05 07:08:34 51°19.79 2°53.114 5.5 14 5 17
2010-05-05 07:09:34 51°20.021 2°53.146 5.3 13.8 5 17.6
2010-05-05 07:10:34 51°20.25 2°53.177 5.7 13.8 5 17.9
2010-05-05 07:11:34 51°20.483 2°53.178 359.5 14 359 18.3
2010-05-05 07:12:34 51°20.712 2°53.172 359.7 13.7 359 17.4
2010-05-05 07:13:34 51°20.939 2°53.166 0.3 13.6 -999 17.8
2010-05-05 07:14:34 51°21.167 2°53.16 0.2 13.8 359 16.4
2010-05-05 07:15:34 51°21.396 2°53.156 0.4 13.8 -999 17
2010-05-05 07:16:34 51°21.624 2°53.155 0.1 13.8 -999 18.5
2010-05-05 07:17:34 51°21.854 2°53.156 0.1 13.8 -999 20.9
2010-05-05 07:18:34 51°22.083 2°53.158 0.4 13.6 1 23
2010-05-05 07:19:34 51°22.311 2°53.16 0.3 13.7 -999 24.4
2010-05-05 07:20:34 51°22.542 2°53.162 0.8 13.9 1 23.7
2010-05-05 07:21:34 51°22.773 2°53.158 0.5 14 -999 23.5
2010-05-05 07:22:34 51°23.005 2°53.154 -999 13.7 -999 22.6
2010-05-05 07:23:34 51°23.235 2°53.156 0.5 14 1 21.5
2010-05-05 07:24:34 51°23.468 2°53.153 0.1 14.1 -999 22.1
2010-05-05 07:25:34 51°23.701 2°53.151 0.2 14.1 359 22.9
2010-05-05 07:26:34 51°23.934 2°53.151 0.5 13.9 -999 21.2
2010-05-05 07:27:34 51°24.168 2°53.144 0.2 14 359 19.2
2010-05-05 07:28:34 51°24.401 2°53.14 0.8 13.9 359 17.9
2010-05-05 07:29:34 51°24.633 2°53.133 0.1 13.8 359 20.3
2010-05-05 07:30:34 51°24.864 2°53.123 0.8 13.9 358 19.5
2010-05-05 07:31:34 51°25.094 2°53.113 0.8 13.8 358 22.5
2010-05-05 07:32:34 51°25.324 2°53.1 0.5 13.8 359 24.1
2010-05-05 07:33:34 51°25.553 2°53.088 0.6 13.8 357 25.1
2010-05-05 07:34:34 51°25.785 2°53.078 0.1 13.9 359 25.9
2010-05-05 07:35:34 51°26.016 2°53.068 359.4 13.9 358 29.4
2010-05-05 07:36:34 51°26.246 2°53.082 9 13.9 7 30.5
2010-05-05 07:37:34 51°26.475 2°53.139 11.2 13.8 9 30.8
2010-05-05 07:38:34 51°26.703 2°53.192 10.9 13.9 8 31.9
2010-05-05 07:39:34 51°26.933 2°53.244 10.8 14 8 30.4
2010-05-05 07:40:34 51°27.163 2°53.295 10.7 13.9 8 28.2
2010-05-05 07:41:34 51°27.396 2°53.349 10.2 14.2 8 26.2
2010-05-05 07:42:34 51°27.63 2°53.404 10.2 14.3 8 23.8
2010-05-05 07:43:34 51°27.865 2°53.459 10.6 14.4 9 21.6
2010-05-05 07:44:34 51°28.1 2°53.514 10.2 14.3 8 20.2
2010-05-05 07:45:34 51°28.334 2°53.572 10.2 14.1 9 22.6
2010-05-05 07:46:34 51°28.565 2°53.621 7.5 13.7 6 23.9
2010-05-05 07:47:34 51°28.794 2°53.659 7.3 13.7 6 25.9
2010-05-05 07:48:34 51°29.023 2°53.699 7.1 13.9 6 27.9
2010-05-05 07:49:34 51°29.252 2°53.736 7 13.9 5 29.5
2010-05-05 07:50:34 51°29.483 2°53.759 3.7 13.8 2 30.4
2010-05-05 07:51:34 51°29.715 2°53.773 4.3 14 2 33
2010-05-05 07:52:34 51°29.948 2°53.785 4.1 14.1 2 32.7
2010-05-05 07:53:34 51°30.18 2°53.798 4.1 13.9 2 31.8
2010-05-05 07:54:34 51°30.411 2°53.813 4.2 13.9 3 33.4
2010-05-05 07:55:34 51°30.642 2°53.828 4.4 13.9 2 26.3
2010-05-05 07:56:34 51°30.877 2°53.843 4.4 14.1 2 15.4
2010-05-05 07:57:34 51°31.113 2°53.859 4.8 14.1 4 20.7
2010-05-05 07:58:47 51°31.398 2°53.878 4.1 14.2 3 20.5
2010-05-05 07:59:47 51°31.633 2°53.892 3.8 14.1 2 21.4
2010-05-05 08:00:47 51°31.869 2°53.906 3.5 14.1 2 21.7
2010-05-05 08:01:47 51°32.103 2°53.921 4.3 14.1 1 23.4
2010-05-05 08:02:47 51°32.339 2°53.936 4.3 14.2 1 22.8
2010-05-05 08:03:47 51°32.573 2°53.957 9.5 14.1 8 24.2
2010-05-05 08:04:47 51°32.778 2°54.12 40.9 13.9 38 24.9
2010-05-05 08:05:47 51°32.952 2°54.368 46 14 41 23.2
2010-05-05 08:06:47 51°33.129 2°54.612 44.4 13.9 42 25
2010-05-05 08:07:47 51°33.296 2°54.868 48.9 14 44 23.7
2010-05-05 08:08:47 51°33.433 2°55.167 65.4 13.8 64 26.7
2010-05-05 08:09:47 51°33.436 2°55.521 109.9 13.2 112 25.8
2010-05-05 08:10:47 51°33.352 2°55.775 125.6 8.9 121 26.2
2010-05-05 08:11:47 51°33.285 2°55.964 124.1 7.2 116 27.6
2010-05-05 08:12:47 51°33.258 2°56.098 97.7 4 86 27.5
2010-05-05 08:13:47 51°33.281 2°56.182 53.3 3.5 47 27.2
2010-05-05 08:14:47 51°33.335 2°56.208 347 3.6 348 26.2
2010-05-05 08:15:47 51°33.368 2°56.154 280.5 2.5 293 24.8
2010-05-05 08:16:47 51°33.376 2°56.102 275 1.7 279 26.6
2010-05-05 08:17:47 51°33.384 2°56.065 283.2 1.3 301 26.9
2010-05-05 08:18:47 51°33.393 2°56.041 292 0.9 316 26.8
2010-05-05 08:19:47 51°33.402 2°56.025 297.7 0.5 310 26.5
2010-05-05 08:20:47 51°33.409 2°56.016 301.3 0.5 305 26.7
2010-05-05 08:21:47 51°33.413 2°56.01 301.8 0.4 334 26.9
2010-05-05 08:22:47 51°33.417 2°56.005 302.8 0.2 337 27
2010-05-05 08:23:47 51°33.42 2°56.002 301.2 0.2 317 27.2
2010-05-05 08:24:47 51°33.42 2°56 293.9 -999 26 27.2
2010-05-05 08:25:47 51°33.421 2°56 289 0.2 33 27.1
2010-05-05 08:26:47 51°33.42 2°56.001 280.8 0.2 159 27.6
2010-05-05 08:27:47 51°33.42 2°56.005 275.5 0.2 24 27.2
2010-05-05 08:28:47 51°33.419 2°56.009 272.4 0.2 132 27.3
2010-05-05 08:29:47 51°33.419 2°56.011 271.2 0.3 20 27.1
2010-05-05 08:30:47 51°33.418 2°56.012 271.6 0.1 195 27.4
2010-05-05 08:31:47 51°33.417 2°56.012 275.7 0.1 195 27.2
2010-05-05 08:32:47 51°33.416 2°56.01 278.2 0.2 223 27.1
2010-05-05 08:33:47 51°33.416 2°56.008 281.9 0.1 340 26.9
2010-05-05 08:34:47 51°33.414 2°56.005 285.2 0.1 221 26.6
2010-05-05 08:35:47 51°33.412 2°56.003 285.2 -999 225 26.8
2010-05-05 08:36:47 51°33.41 2°56.001 285.2 0.2 206 27.1
2010-05-05 08:37:47 51°33.408 2°55.999 284.1 0.2 209 26.6
2010-05-05 08:38:47 51°33.406 2°55.997 282.4 0.1 192 26
2010-05-05 08:39:47 51°33.404 2°55.995 281 0.2 196 26.9
2010-05-05 08:40:47 51°33.402 2°55.993 278.8 0.6 200 26.8
2010-05-05 08:41:47 51°33.399 2°55.991 276.9 0.3 202 25.7
2010-05-05 08:42:47 51°33.396 2°55.99 275.8 0.2 193 26.3
2010-05-05 08:43:47 51°33.393 2°55.988 275.7 0.3 201 26
2010-05-05 08:44:47 51°33.39 2°55.985 275.9 0.3 296 25.5
2010-05-05 08:45:47 51°33.384 2°55.945 240.5 2.3 245 25.2
2010-05-05 08:46:47 51°33.347 2°55.918 174.8 2.9 170 27.6
2010-05-05 08:47:47 51°33.315 2°55.961 127.8 2 129 27.7
2010-05-05 08:48:47 51°33.301 2°56 120.6 1.4 119 27.5
2010-05-05 08:49:47 51°33.292 2°56.029 114.3 1.1 122 27.9
2010-05-05 08:50:47 51°33.287 2°56.051 109.5 0.8 125 27.8
2010-05-05 08:51:47 51°33.284 2°56.068 105.7 0.6 119 28
2010-05-05 08:52:47 51°33.282 2°56.08 101.1 0.4 116 27.7
2010-05-05 08:53:47 51°33.281 2°56.088 98.4 0.2 83 27.5
2010-05-05 08:54:47 51°33.279 2°56.093 95.7 0.1 99 27.7
2010-05-05 08:55:47 51°33.278 2°56.095 95.3 0.1 114 27.4
2010-05-05 08:56:46 51°33.276 2°56.096 95.9 0.2 2 27.2
2010-05-05 08:57:46 51°33.274 2°56.095 96.9 0.1 207 27.7
2010-05-05 08:58:46 51°33.271 2°56.093 101.7 0.2 210 27.9
2010-05-05 09:00:00 51°33.266 2°56.09 107.5 0.3 202 27.8
2010-05-05 09:01:06 51°33.262 2°56.085 111.5 0.5 209 27.9
2010-05-05 09:02:09 51°33.258 2°56.082 112.6 0.1 224 27.1
2010-05-05 09:03:09 51°33.254 2°56.078 113.9 0.4 217 27.4
2010-05-05 09:04:09 51°33.25 2°56.075 114.3 0.2 214 26.9
2010-05-05 09:05:09 51°33.245 2°56.072 114 0.5 207 27.2
2010-05-05 09:06:09 51°33.241 2°56.069 114.2 0.1 202 26.8
2010-05-05 09:07:09 51°33.235 2°56.066 112.8 0.2 210 26.8
2010-05-05 09:08:09 51°33.23 2°56.063 111.8 0.2 205 26.6
2010-05-05 09:09:09 51°33.225 2°56.06 111.5 0.1 179 26.6
2010-05-05 09:10:09 51°33.219 2°56.056 112.3 0.2 210 26.3
2010-05-05 09:11:09 51°33.213 2°56.053 109.3 0.4 212 26.7
2010-05-05 09:12:09 51°33.206 2°56.049 109.7 0.3 212 26.2
2010-05-05 09:13:09 51°33.2 2°56.045 109.8 0.3 204 26.1
2010-05-05 09:14:09 51°33.193 2°56.042 108 0.5 193 25.9
2010-05-05 09:15:09 51°33.187 2°56.039 109 0.5 201 26
2010-05-05 09:16:09 51°33.181 2°56.037 109.2 0.5 189 25.7
2010-05-05 09:17:09 51°33.175 2°56.034 106.5 0.5 194 25.6
2010-05-05 09:18:09 51°33.169 2°56.031 107.7 0.4 193 24.8
2010-05-05 09:19:09 51°33.162 2°56.028 109.4 0.4 199 24.6
2010-05-05 09:20:09 51°33.155 2°56.025 111.9 0.5 201 24.1
2010-05-05 09:21:09 51°33.147 2°56.021 112 0.3 196 23.9
2010-05-05 09:22:09 51°33.138 2°56.02 109.6 0.7 148 24.8
2010-05-05 09:23:09 51°33.131 2°56.054 87.8 1.8 100 23.1
2010-05-05 09:24:09 51°33.14 2°56.109 63.4 2.4 63 25.1
2010-05-05 09:25:09 51°33.17 2°56.157 36.1 2.7 33 26.6
2010-05-05 09:26:09 51°33.213 2°56.172 0.1 2.7 351 26.2
2010-05-05 09:27:09 51°33.244 2°56.137 318.4 2 310 27.3
2010-05-05 09:28:09 51°33.257 2°56.097 309.1 1.4 291 27
2010-05-05 09:29:09 51°33.263 2°56.064 310.9 1.1 293 26.4
2010-05-05 09:30:09 51°33.266 2°56.038 313.9 1 270 27.1
2010-05-05 09:31:09 51°33.267 2°56.016 316.8 0.9 265 27.4
2010-05-05 09:32:09 51°33.266 2°55.996 320.5 0.8 263 26.9
2010-05-05 09:33:09 51°33.263 2°55.976 320.9 0.8 255 27.3
2010-05-05 09:34:09 51°33.258 2°55.956 318.1 1 241 27.1
2010-05-05 09:35:09 51°33.253 2°55.936 307.9 1.2 279 26.1
2010-05-05 09:36:09 51°33.28 2°55.896 353.6 2.8 344 26
2010-05-05 09:37:09 51°33.32 2°55.924 58.9 2.3 60 27.6
2010-05-05 09:38:09 51°33.324 2°55.967 92.3 1.3 98 27.2
2010-05-05 09:39:09 51°33.317 2°55.995 95.2 0.8 117 27.1
2010-05-05 09:40:09 51°33.31 2°56.011 91.2 0.6 139 27.1
2010-05-05 09:41:09 51°33.304 2°56.019 90.4 0.5 162 27.6
2010-05-05 09:42:09 51°33.297 2°56.02 91.6 0.4 191 27.5
2010-05-05 09:43:09 51°33.289 2°56.025 99.2 1.1 139 27.2
2010-05-05 09:44:09 51°33.272 2°56.052 132.4 2 150 27.1
2010-05-05 09:45:09 51°33.245 2°56.065 157.8 1.4 181 27
2010-05-05 09:46:09 51°33.228 2°56.06 172.9 0.7 216 26.9
2010-05-05 09:47:09 51°33.224 2°56.046 185.9 0.6 272 26.3
2010-05-05 09:48:12 51°33.222 2°56.03 207 1.4 233 -999
2010-05-05 09:49:10 51°33.206 2°55.986 256.2 2.3 256 25.3
2010-05-05 09:50:09 51°33.199 2°55.94 272.6 1.6 255 24.6
2010-05-05 09:51:09 51°33.194 2°55.902 275.4 1.4 252 24.4
2010-05-05 09:52:09 51°33.188 2°55.87 277.9 1.2 252 24
2010-05-05 09:53:09 51°33.182 2°55.841 281.4 1.1 249 25.8
2010-05-05 09:54:09 51°33.177 2°55.817 287.5 0.9 249 25.7
2010-05-05 09:55:09 51°33.171 2°55.794 293.9 0.9 246 25.2
2010-05-05 09:56:08 51°33.165 2°55.773 300.9 0.8 247 24.4
2010-05-05 09:57:09 51°33.165 2°55.741 318.1 2 302 26.2
2010-05-05 09:58:08 51°33.212 2°55.727 27.5 4 23 25.4
2010-05-05 09:59:09 51°33.306 2°55.816 29.9 8.5 24 24.9
2010-05-05 10:00:09 51°33.431 2°55.919 50.7 7.1 50 26
2010-05-05 10:01:09 51°33.45 2°56.045 93.2 3.7 97 25.4
2010-05-05 10:02:09 51°33.431 2°56.12 110.4 2.6 123 26.6
2010-05-05 10:03:08 51°33.412 2°56.167 108.6 1.7 122 26.1
2010-05-05 10:04:09 51°33.396 2°56.2 104.8 1.3 134 26.2
2010-05-05 10:05:08 51°33.384 2°56.22 101.5 0.9 136 25.7
2010-05-05 10:06:40 51°33.367 2°56.236 101.4 0.6 156 25.7
2010-05-05 10:07:40 51°33.356 2°56.239 99.1 0.7 176 26.1
2010-05-05 10:08:40 51°33.344 2°56.237 97 0.8 186 25.9
2010-05-05 10:09:40 51°33.333 2°56.233 95 0.9 194 25.5
2010-05-05 10:10:40 51°33.322 2°56.228 94.3 0.8 194 26.3
2010-05-05 10:11:40 51°33.31 2°56.222 95.5 0.5 213 26.9
2010-05-05 10:12:39 51°33.298 2°56.215 98.2 0.8 198 26.8
2010-05-05 10:13:40 51°33.286 2°56.207 100.1 0.7 205 26.7
2010-05-05 10:14:40 51°33.272 2°56.196 103.4 1 208 26.3
2010-05-05 10:15:40 51°33.258 2°56.185 106.3 1.1 205 25.6
2010-05-05 10:16:40 51°33.244 2°56.174 109 0.8 212 26.6
2010-05-05 10:17:40 51°33.23 2°56.162 110.4 1.1 212 26.8
2010-05-05 10:18:40 51°33.216 2°56.149 111.9 1.1 208 26.5
2010-05-05 10:19:39 51°33.201 2°56.142 106.1 1 150 26
2010-05-05 10:20:40 51°33.197 2°56.181 58.8 2.4 60 26
2010-05-05 10:21:40 51°33.245 2°56.244 37.9 4.7 36 25.2
2010-05-05 10:22:40 51°33.311 2°56.328 40 4.5 38 25.3
2010-05-05 10:23:40 51°33.358 2°56.373 27.8 2.5 22 24.5
2010-05-05 10:24:40 51°33.388 2°56.382 17.8 1.5 1 25.6
2010-05-05 10:25:40 51°33.407 2°56.378 11.6 0.9 334 26
2010-05-05 10:26:39 51°33.415 2°56.366 8.1 0.5 296 26.9
2010-05-05 10:27:40 51°33.415 2°56.351 6.2 0.7 248 26.2
2010-05-05 10:28:39 51°33.41 2°56.332 1.1 1.1 233 26.8
2010-05-05 10:29:40 51°33.397 2°56.31 347.3 1.2 223 25.1
2010-05-05 10:30:39 51°33.381 2°56.29 328.3 1.2 214 25.3
2010-05-05 10:31:40 51°33.365 2°56.271 308.9 1.2 214 26.1
2010-05-05 10:32:40 51°33.349 2°56.254 289 1.2 216 26.3
2010-05-05 10:33:40 51°33.334 2°56.234 273.9 1.2 218 24.8
2010-05-05 10:34:40 51°33.32 2°56.215 267.7 1.3 216 27
2010-05-05 10:35:39 51°33.305 2°56.195 269.9 1.2 219 27
2010-05-05 10:36:40 51°33.289 2°56.174 272.2 1.3 217 26.6
2010-05-05 10:37:39 51°33.273 2°56.154 274.4 1.1 226 25.2
2010-05-05 10:38:40 51°33.258 2°56.13 279.2 1.3 225 27
2010-05-05 10:39:40 51°33.244 2°56.107 285 1.2 226 27
2010-05-05 10:40:40 51°33.231 2°56.083 291.9 1.1 230 26.3
2010-05-05 10:41:40 51°33.216 2°56.059 295.3 1.4 224 26.3
2010-05-05 10:42:39 51°33.202 2°56.036 296.7 1.3 222 25.4
2010-05-05 10:43:40 51°33.187 2°56.013 297.5 1.2 227 25
2010-05-05 10:44:39 51°33.172 2°55.991 297.7 1.2 220 24.5
2010-05-05 10:45:40 51°33.156 2°55.966 295.4 1.2 226 24.5
2010-05-05 10:46:39 51°33.147 2°55.93 311 2.2 278 23.3
2010-05-05 10:47:40 51°33.169 2°55.888 2.5 2.1 342 24.2
2010-05-05 10:48:39 51°33.192 2°55.918 70.3 1.8 87 24
2010-05-05 10:49:39 51°33.181 2°55.953 92.3 1.5 143 24.7
2010-05-05 10:50:39 51°33.165 2°55.971 91.9 1.2 156 23.4
2010-05-05 10:51:39 51°33.147 2°55.979 89.2 0.9 174 25.2
2010-05-05 10:52:40 51°33.131 2°55.977 84.1 1 192 25.2
2010-05-05 10:53:39 51°33.12 2°55.989 66.4 1.3 87 24.7
2010-05-05 10:54:40 51°33.137 2°56.014 23.7 1.8 14 24.8
2010-05-05 10:55:39 51°33.193 2°56.012 6.5 4.9 359 25.1
2010-05-05 10:56:40 51°33.293 2°56.021 13.2 6.4 7 26.8
2010-05-05 10:57:39 51°33.393 2°56.076 31.9 6.5 31 25.3
2010-05-05 10:58:39 51°33.47 2°56.195 53.1 6.7 55 27.4
2010-05-05 10:59:39 51°33.506 2°56.344 76 4.7 86 28.2
2010-05-05 11:00:39 51°33.49 2°56.439 105.7 3.3 125 27.7
2010-05-05 11:01:40 51°33.455 2°56.494 118.7 2.7 150 27.3
2010-05-05 11:02:39 51°33.421 2°56.526 120.2 2.2 157 26.3
2010-05-05 11:03:40 51°33.39 2°56.544 119.4 1.8 160 25.3
2010-05-05 11:04:39 51°33.363 2°56.552 119.2 1.9 178 26.1
2010-05-05 11:05:40 51°33.336 2°56.554 118.8 1.5 179 26.6
2010-05-05 11:06:41 51°33.312 2°56.552 116.8 1.5 187 26.7
2010-05-05 11:10:37 51°33.225 2°56.516 106.5 1.4 199 23.7
2010-05-05 11:11:37 51°33.203 2°56.502 105.3 1.5 204 25.5
2010-05-05 11:12:37 51°33.182 2°56.487 102.5 1.3 207 25.8
2010-05-05 11:13:37 51°33.161 2°56.471 101.5 1.6 206 26.4
2010-05-05 11:14:37 51°33.14 2°56.456 101.7 1.3 204 25.7
2010-05-05 11:15:37 51°33.117 2°56.439 102 1.3 207 25.3
2010-05-05 11:16:36 51°33.096 2°56.423 101.3 1.5 205 25.7
2010-05-05 11:17:37 51°33.072 2°56.406 101.7 1.5 207 23.1
2010-05-05 11:18:37 51°33.05 2°56.388 103.9 1.5 204 23.9
2010-05-05 11:19:37 51°33.027 2°56.37 105.3 1.5 204 24.4
2010-05-05 11:20:37 51°33.003 2°56.351 108 1.6 206 25.3
2010-05-05 11:21:37 51°32.981 2°56.334 108.2 1.5 206 24.6
2010-05-05 11:22:37 51°32.957 2°56.316 109.3 1.6 205 23.6
2010-05-05 11:23:37 51°32.933 2°56.298 109.7 1.5 205 23
2010-05-05 11:24:37 51°32.909 2°56.281 108.1 1.5 205 24.6
2010-05-05 11:25:36 51°32.884 2°56.283 95.4 2.4 123 24.8
2010-05-05 11:26:37 51°32.915 2°56.367 37 5.9 34 22.5
2010-05-05 11:27:37 51°33.036 2°56.442 16.9 8.6 10 23.2
2010-05-05 11:28:37 51°33.183 2°56.433 355.6 9.1 347 26.9
2010-05-05 11:29:36 51°33.268 2°56.347 321 4.6 301 27.4
2010-05-05 11:30:36 51°33.283 2°56.242 287.5 4.1 265 27
2010-05-05 11:31:37 51°33.234 2°56.146 203.2 5.1 203 26.6
2010-05-05 11:32:36 51°33.164 2°56.16 131.1 3.6 156 26.2
2010-05-05 11:33:37 51°33.118 2°56.202 117.7 2.9 148 25.3
2010-05-05 11:34:36 51°33.081 2°56.243 108.8 2.7 146 24.1
2010-05-05 11:35:36 51°33.056 2°56.289 80.8 2.2 112 24.3
2010-05-05 11:36:37 51°33.08 2°56.319 5.8 2.2 341 25.2
2010-05-05 11:37:36 51°33.102 2°56.276 331.4 2.2 292 24.9
2010-05-05 11:38:37 51°33.107 2°56.222 320.2 1.9 271 24.7
2010-05-05 11:39:36 51°33.101 2°56.172 316.5 1.8 251 24.2
2010-05-05 11:40:37 51°33.089 2°56.126 316.5 1.8 243 24.3
2010-05-05 11:41:36 51°33.075 2°56.089 315.1 1.7 234 24.8
2010-05-05 11:42:37 51°33.057 2°56.052 312.9 1.9 230 23.2
2010-05-05 11:43:37 51°33.037 2°56.017 312.2 1.8 225 25.2
2010-05-05 11:44:36 51°33.025 2°55.974 321.7 2.8 290 25
2010-05-05 11:45:37 51°33.077 2°55.958 31.8 4 33 25.6
2010-05-05 11:46:36 51°33.132 2°56.054 42.6 5.5 41 22.9
2010-05-05 11:47:37 51°33.191 2°56.074 355.5 2.8 332 25.8
2010-05-05 11:48:36 51°33.213 2°56.021 325 2.3 286 26
2010-05-05 11:49:37 51°33.214 2°55.963 316.3 2.1 261 24.9
2010-05-05 11:50:37 51°33.21 2°55.909 327.2 2 273 24.9
2010-05-05 11:51:37 51°33.218 2°55.871 2.3 1.1 307 24.6
2010-05-05 11:52:37 51°33.222 2°55.87 50.4 0.7 116 24.3
2010-05-05 11:53:36 51°33.209 2°55.889 89.4 1.2 153 23.8
2010-05-05 11:54:37 51°33.183 2°55.898 90.8 1.6 175 22.8
2010-05-05 11:55:36 51°33.159 2°55.899 87.2 1.4 183 25
2010-05-05 11:56:37 51°33.142 2°55.918 63.1 1 110 24.1
2010-05-05 11:57:36 51°33.148 2°55.941 28.1 1.3 22 22.6
2010-05-05 11:58:37 51°33.184 2°55.946 12 2.8 -999 24.1
2010-05-05 11:59:37 51°33.238 2°55.935 4.2 3.5 351 25.9
2010-05-05 12:00:37 51°33.293 2°55.951 24.3 3.5 19 26.6
2010-05-05 12:01:37 51°33.352 2°55.972 14.6 3.7 4 26.3
2010-05-05 12:02:37 51°33.41 2°55.96 359.2 2.7 337 25.3
2010-05-05 12:03:37 51°33.434 2°55.922 342.8 1.7 296 26.1
2010-05-05 12:04:36 51°33.438 2°55.88 332.5 1.7 267 26.4
2010-05-05 12:05:37 51°33.429 2°55.837 327 1.8 244 25.8
2010-05-05 12:06:37 51°33.413 2°55.799 324.7 1.8 230 23.6
2010-05-05 12:07:37 51°33.393 2°55.764 321 1.5 223 26.2
2010-05-05 12:08:37 51°33.37 2°55.733 312.1 1.8 217 26
2010-05-05 12:09:37 51°33.344 2°55.703 299.8 1.9 213 24.6
2010-05-05 12:11:54 51°33.282 2°55.641 273.6 1.8 211 26.6
2010-05-05 12:16:04 51°33.342 2°55.542 24 7.3 20 27.4
2010-05-05 12:17:03 51°33.474 2°55.596 21.5 8.7 18 25.8
2010-05-05 12:18:04 51°33.571 2°55.757 68.5 8.9 75 27.7
2010-05-05 12:19:04 51°33.539 2°55.911 118.8 5 134 27.5
2010-05-05 12:20:04 51°33.477 2°55.968 138.1 4 161 26.4
2010-05-05 12:21:04 51°33.422 2°55.996 134 3 163 26.7
2010-05-05 12:22:04 51°33.38 2°56.014 125 2.4 165 24.8
2010-05-05 12:23:04 51°33.343 2°56.022 118 2.1 175 26.5
2010-05-05 12:24:03 51°33.313 2°56.025 109.4 1.8 180 27.5
2010-05-05 12:25:03 51°33.285 2°56.022 104.5 1.7 186 26.7
2010-05-05 12:26:04 51°33.258 2°56.015 101.4 1.6 193 26.6
2010-05-05 12:27:04 51°33.23 2°56.003 101.7 1.6 196 26
2010-05-05 12:28:04 51°33.202 2°55.988 101.4 1.7 197 25.2
2010-05-05 12:29:04 51°33.174 2°55.971 101.3 1.7 201 24.1
2010-05-05 12:30:04 51°33.144 2°55.952 100.6 1.9 203 23.8
2010-05-05 12:31:04 51°33.118 2°55.961 74.1 1.3 138 22.8
2010-05-05 12:32:03 51°33.12 2°55.994 41.8 2.4 46 25.3
2010-05-05 12:33:04 51°33.181 2°56.005 356.2 4.8 343 24.6
2010-05-05 12:34:04 51°33.286 2°55.937 351.6 7.8 343 26.4
2010-05-05 12:35:04 51°33.417 2°55.897 353.9 8.2 346 25.9
2010-05-05 12:36:04 51°33.524 2°55.954 49.9 5 54 27.1
2010-05-05 12:37:04 51°33.53 2°56.037 81.3 2.6 112 27.8
2010-05-05 12:38:04 51°33.507 2°56.083 92.6 2 141 27.5
2010-05-05 12:39:03 51°33.48 2°56.106 91.2 1.9 162 27.8
2010-05-05 12:40:03 51°33.454 2°56.114 88.5 1.7 177 26.9
2010-05-05 12:41:04 51°33.427 2°56.119 82.8 1.6 156 26.3
2010-05-05 12:42:04 51°33.411 2°56.143 62.5 1.2 121 26.1
2010-05-05 12:43:03 51°33.409 2°56.165 36.2 0.5 51 26.3
2010-05-05 12:44:03 51°33.416 2°56.151 350.7 1.4 285 27.3
2010-05-05 12:45:04 51°33.412 2°56.095 303.5 2.5 253 25.3
2010-05-05 12:46:03 51°33.396 2°56.031 289.8 2.7 244 26.1
2010-05-05 12:47:04 51°33.374 2°55.965 281.2 2.8 242 24.3
2010-05-05 12:48:03 51°33.353 2°55.901 285 2.7 245 26.9
2010-05-05 12:49:04 51°33.334 2°55.836 289.3 2.7 245 26.2
2010-05-05 12:50:03 51°33.316 2°55.772 290.7 2.8 243 25.5
2010-05-05 12:51:04 51°33.297 2°55.706 292.8 2.7 246 24.1
2010-05-05 12:52:04 51°33.28 2°55.641 296 2.6 248 26.6
2010-05-05 12:53:04 51°33.271 2°55.554 298.6 4.4 272 26.2
2010-05-05 12:54:03 51°33.265 2°55.367 273 8.9 260 25.1
2010-05-05 12:55:04 51°33.225 2°55.089 251.1 12 245 24.5
2010-05-05 12:56:04 51°33.108 2°54.81 229.4 13.1 226 24.2
2010-05-05 12:57:04 51°32.919 2°54.604 203 14.7 200 25.2
2010-05-05 12:58:03 51°32.694 2°54.45 199.2 14.9 205 23.1
2010-05-05 12:59:04 51°32.454 2°54.297 200.2 14.9 206 22.3
2010-05-05 13:00:03 51°32.222 2°54.15 199.1 15.7 201 20.1
2010-05-05 13:01:04 51°31.983 2°53.99 200.4 15.7 206 20.3
2010-05-05 13:02:03 51°31.783 2°53.757 221.3 15.2 221 20.9
2010-05-05 13:03:04 51°31.589 2°53.481 222 15.4 217 20.4
2010-05-05 13:04:03 51°31.404 2°53.215 220.5 15.6 227 20.7
2010-05-05 13:05:03 51°31.21 2°52.953 219.7 15.2 218 21.1
2010-05-05 13:06:03 51°31.016 2°52.689 220.9 15.5 220 20.2
2010-05-05 13:07:03 51°30.819 2°52.43 219.3 15.7 217 20.1
2010-05-05 13:08:04 51°30.62 2°52.169 218.3 15 219 20.3
2010-05-05 13:09:03 51°30.428 2°51.918 219 15.2 219 22.5
2010-05-05 13:10:03 51°30.235 2°51.659 219.7 14.8 217 26.5
2010-05-05 13:11:03 51°30.043 2°51.398 220.6 15.3 221 28.8
2010-05-05 13:12:03 51°29.854 2°51.137 221.3 14.7 222 29.9
2010-05-05 13:13:03 51°29.666 2°50.873 220.1 14.9 224 29.5
2010-05-05 13:14:03 51°29.48 2°50.61 221.5 14.8 220 29.9
2010-05-05 13:15:03 51°29.291 2°50.346 220.5 15 223 29.7
2010-05-05 13:20:31 51°28.253 2°48.911 218.6 15.6 221 29.1
2010-05-05 13:21:31 51°28.064 2°48.645 221.1 15.2 220 26.4
2010-05-05 13:22:32 51°27.872 2°48.373 220.4 15.1 221 29.2
2010-05-05 13:23:32 51°27.68 2°48.103 220.4 15.3 221 26.8
2010-05-05 13:24:31 51°27.493 2°47.839 220.1 15.4 220 27.2
2010-05-05 13:25:31 51°27.305 2°47.571 220.7 14.8 217 27.3
2010-05-05 13:26:31 51°27.118 2°47.308 220.7 14.8 218 26.7
2010-05-05 13:27:31 51°26.93 2°47.045 219.8 15.3 223 25
2010-05-05 13:28:31 51°26.742 2°46.775 220.4 15.4 218 27.9
2010-05-05 13:29:32 51°26.549 2°46.505 219.3 14.9 217 27.1
2010-05-05 13:30:31 51°26.365 2°46.238 220.8 15.2 222 24.8
2010-05-05 13:31:31 51°26.177 2°45.968 221.3 15.1 221 26.6
2010-05-05 13:32:31 51°25.986 2°45.699 220 15.7 222 24.7
2010-05-05 13:33:31 51°25.798 2°45.426 221.2 15.4 222 25.1
2010-05-05 13:34:31 51°25.61 2°45.158 219.3 15 225 24.2
2010-05-05 13:35:31 51°25.423 2°44.892 219.6 15.5 221 25.1
2010-05-05 13:36:32 51°25.236 2°44.616 221.4 14.5 222 23
2010-05-05 13:37:31 51°25.101 2°44.413 222.3 9.2 221 23.3
2010-05-05 13:38:32 51°25.005 2°44.255 225.8 7.5 228 22.5
2010-05-05 13:39:31 51°24.92 2°44.126 219.3 6.9 226 22.7
2010-05-05 13:40:31 51°24.834 2°44 220.2 7.1 224 20.4
2010-05-05 13:41:31 51°24.766 2°43.878 236.6 5.5 232 21.5
2010-05-05 13:42:31 51°24.728 2°43.783 251.4 2.9 239 24.6
2010-05-05 13:43:31 51°24.706 2°43.749 264.6 1.7 216 22.4
2010-05-05 13:44:31 51°24.685 2°43.727 254.4 1.6 215 23.8
2010-05-05 13:45:32 51°24.662 2°43.697 248.7 2 218 22.1
2010-05-05 13:46:31 51°24.639 2°43.662 253.1 2 223 24
2010-05-05 13:47:31 51°24.617 2°43.621 267.9 2.5 241 23.9
2010-05-05 13:48:31 51°24.611 2°43.537 313.9 3.6 287 22.5
2010-05-05 13:49:31 51°24.646 2°43.485 18.3 2.3 359 23
2010-05-05 13:50:31 51°24.658 2°43.528 81.3 2.1 101 20.2
2010-05-05 13:51:31 51°24.679 2°43.599 54.2 3.9 57 23.8
2010-05-05 13:52:32 51°24.699 2°43.669 59.2 2.2 69 22.6
2010-05-05 13:53:31 51°24.702 2°43.704 62.7 1 123 24.9
2010-05-05 13:54:31 51°24.693 2°43.711 68.4 0.9 174 24.7
2010-05-05 13:55:31 51°24.678 2°43.709 70.4 0.9 182 23.9
2010-05-05 13:56:31 51°24.66 2°43.702 73.8 1.1 209 24.2
2010-05-05 13:57:31 51°24.652 2°43.707 46.5 0.9 46 24.5
2010-05-05 13:58:31 51°24.674 2°43.704 23.9 1.5 359 24.2
2010-05-05 13:59:31 51°24.681 2°43.719 68.4 0.7 169 23.9
2010-05-05 14:00:31 51°24.664 2°43.718 84.6 1.2 190 24.9
2010-05-05 14:01:32 51°24.643 2°43.71 83.9 1.2 191 24.1
2010-05-05 14:02:31 51°24.645 2°43.728 33.6 1.9 15 25.7
2010-05-05 14:03:31 51°24.677 2°43.696 346.8 2.5 313 24.3
2010-05-05 14:04:31 51°24.705 2°43.672 29.7 0.9 342 24.4
2010-05-05 14:05:31 51°24.706 2°43.667 51.3 0.5 218 23.8
2010-05-05 14:06:31 51°24.696 2°43.67 72.3 0.9 144 23.1
2010-05-05 14:07:31 51°24.683 2°43.691 77.7 1.2 131 24
2010-05-05 14:08:31 51°24.667 2°43.705 78.3 1 171 21.9
2010-05-05 14:09:31 51°24.649 2°43.704 77 1.1 202 23.7
2010-05-05 14:10:31 51°24.629 2°43.691 80.3 1.5 202 23.5
2010-05-05 14:11:31 51°24.625 2°43.702 42.4 1.5 29 22.8
2010-05-05 14:12:31 51°24.675 2°43.704 16.6 3.1 1 24.2
2010-05-05 14:13:31 51°24.705 2°43.709 38.1 0.4 22 24.5
2010-05-05 14:14:32 51°24.699 2°43.708 72.2 0.9 194 24.1
2010-05-05 14:15:31 51°24.679 2°43.701 90.8 1.1 178 24.2
2010-05-05 14:16:31 51°24.658 2°43.7 80.2 1.3 194 24.3
2010-05-05 14:17:31 51°24.637 2°43.687 82.5 1.6 203 22.6
2010-05-05 14:18:32 51°24.628 2°43.698 51.6 1.3 49 22.7
2010-05-05 14:19:31 51°24.671 2°43.707 15.6 3.3 9 21
2010-05-05 14:21:21 51°24.618 2°43.85 129.2 8.5 139 22.9
2010-05-05 14:25:24 51°23.888 2°44.618 145.2 13.8 155 27.6
2010-05-05 14:26:24 51°23.685 2°44.787 149.7 14 149 28.3
2010-05-05 14:27:24 51°23.483 2°44.949 149.3 13.9 155 28.5
2010-05-05 14:28:24 51°23.28 2°45.113 148.2 13.7 155 27.8
2010-05-05 14:29:24 51°23.078 2°45.28 147.8 13.6 155 26.5
2010-05-05 14:30:24 51°22.879 2°45.452 148.4 13.7 147 27.8
2010-05-05 14:31:24 51°22.679 2°45.625 147.4 13.9 151 22.8
2010-05-05 14:32:24 51°22.479 2°45.799 148.5 14.2 151 22.3
2010-05-05 14:33:25 51°22.279 2°45.986 145 13.7 152 22.3
2010-05-05 14:34:24 51°22.083 2°46.165 147.7 14.4 149 21.8
2010-05-05 14:35:24 51°21.883 2°46.352 147.2 14.1 149 24.1
2010-05-05 14:36:24 51°21.686 2°46.539 144.5 13.7 147 25.6
2010-05-05 14:37:24 51°21.504 2°46.759 137.5 13.4 138 25.8
2010-05-05 14:38:24 51°21.326 2°46.982 139.6 13.7 136 24.6
2010-05-05 14:39:24 51°21.148 2°47.205 142.4 13.8 144 24.2
2010-05-05 14:40:24 51°20.973 2°47.435 140.7 14 136 20.8
2010-05-05 14:41:24 51°20.791 2°47.657 139.2 13.9 140 18.3
2010-05-05 14:42:24 51°20.607 2°47.881 137.4 13.4 137 21
2010-05-05 14:43:24 51°20.426 2°48.099 140.6 13.8 146 22.7
2010-05-05 14:44:24 51°20.243 2°48.315 139.4 13.9 151 23.3
2010-05-05 14:45:24 51°20.058 2°48.533 140.3 13.6 145 23.4
2010-05-05 14:46:24 51°19.873 2°48.754 140.7 14 143 22.2
2010-05-05 14:47:24 51°19.687 2°48.974 142.2 13.7 144 19.2
2010-05-05 14:48:24 51°19.504 2°49.197 139.4 13.4 144 16.2
2010-05-05 14:49:24 51°19.321 2°49.419 140.7 13.3 143 15
2010-05-05 14:50:24 51°19.142 2°49.642 140.2 13.3 137 13.1
2010-05-05 14:51:24 51°18.961 2°49.866 139.9 14.2 141 12.2
2010-05-05 14:52:24 51°18.777 2°50.088 143.1 13.8 143 14.4
2010-05-05 14:53:24 51°18.599 2°50.316 138 13.7 138 15.6
2010-05-05 14:54:24 51°18.416 2°50.536 141.1 13.3 146 15.4
2010-05-05 14:55:24 51°18.229 2°50.747 141.6 14 149 14.4
2010-05-05 14:56:24 51°18.051 2°50.979 134.3 14.2 132 13.8
2010-05-05 14:57:24 51°17.887 2°51.223 134.1 13.3 141 12
2010-05-05 14:58:24 51°17.715 2°51.469 134.9 14 134 11.1
2010-05-05 14:59:24 51°17.548 2°51.719 132.8 13.5 134 11.3
2010-05-05 15:00:24 51°17.392 2°51.987 131.5 13.9 136 11.3
2010-05-05 15:01:24 51°17.211 2°52.207 146.7 13.7 152 12.2
2010-05-05 15:02:24 51°17.011 2°52.388 152.9 13.9 155 10.7
2010-05-05 15:03:24 51°16.802 2°52.561 150.6 14.1 153 11
2010-05-05 15:04:24 51°16.601 2°52.745 147.1 13.8 150 12.6
2010-05-05 15:05:24 51°16.395 2°52.912 151.9 14.2 153 13.3
2010-05-05 15:06:24 51°16.196 2°53.089 151.1 14.1 149 13.2
2010-05-05 15:07:24 51°15.997 2°53.27 150.3 13.8 152 12.8
2010-05-05 15:08:24 51°15.799 2°53.453 150.5 13.9 150 12.6
2010-05-05 15:09:24 51°15.602 2°53.639 145.6 13.9 146 12.5
2010-05-05 15:10:24 51°15.421 2°53.854 139.3 13.3 141 11.6
2010-05-05 15:11:24 51°15.249 2°54.089 136 13.4 139 11.5
2010-05-05 15:12:24 51°15.067 2°54.301 144.5 13.6 145 10.9
2010-05-05 15:13:25 51°14.878 2°54.513 146 13.8 145 12.5
2010-05-05 15:14:24 51°14.705 2°54.734 143.2 13.7 139 11.2
2010-05-05 15:15:24 51°14.534 2°54.966 137.4 13.4 139 12.1
2010-05-05 15:16:24 51°14.355 2°55.175 142 13.5 142 11.7
2010-05-05 15:17:24 51°14.214 2°55.334 144 8.2 147 11.9
2010-05-05 15:18:24 51°14.115 2°55.427 153.4 6.3 154 11.9
2010-05-05 15:19:24 51°14.01 2°55.495 157.1 7.1 158 12
2010-05-05 15:20:24 51°13.901 2°55.568 156.1 6.5 157 12.2
2010-05-05 15:21:24 51°13.811 2°55.637 152.4 5.8 151 12.3
2010-05-05 15:22:24 51°13.742 2°55.735 127.6 5.5 128 12.4
2010-05-05 15:23:24 51°13.689 2°55.848 125.2 5 125 11.6
2010-05-05 15:24:24 51°13.663 2°55.944 102.8 2 107 8.2